Map

Track Data

SID SEASON NUMBER BASIN SUBBASIN NAME ISO_TIME NATURE LAT LON WMO_WIND WMO_PRES WMO_AGENCY TRACK_TYPE DIST2LAND LANDFALL IFLAG USA_AGENCY USA_ATCF_ID USA_LAT USA_LON USA_RECORD USA_STATUS USA_WIND USA_PRES USA_SSHS USA_R34_NE USA_R34_SE USA_R34_SW USA_R34_NW USA_R50_NE USA_R50_SE USA_R50_SW USA_R50_NW USA_R64_NE USA_R64_SE USA_R64_SW USA_R64_NW USA_POCI USA_ROCI USA_RMW USA_EYE TOKYO_LAT TOKYO_LON TOKYO_GRADE TOKYO_WIND TOKYO_PRES TOKYO_R50_DIR TOKYO_R50_LONG TOKYO_R50_SHORT TOKYO_R30_DIR TOKYO_R30_LONG TOKYO_R30_SHORT TOKYO_LAND CMA_LAT CMA_LON CMA_CAT CMA_WIND CMA_PRES HKO_LAT HKO_LON HKO_CAT HKO_WIND HKO_PRES NEWDELHI_LAT NEWDELHI_LON NEWDELHI_GRADE NEWDELHI_WIND NEWDELHI_PRES NEWDELHI_CI NEWDELHI_DP NEWDELHI_POCI REUNION_LAT REUNION_LON REUNION_TYPE REUNION_WIND REUNION_PRES REUNION_TNUM REUNION_CI REUNION_RMW REUNION_R34_NE REUNION_R34_SE REUNION_R34_SW REUNION_R34_NW REUNION_R50_NE REUNION_R50_SE REUNION_R50_SW REUNION_R50_NW REUNION_R64_NE REUNION_R64_SE REUNION_R64_SW REUNION_R64_NW BOM_LAT BOM_LON BOM_TYPE BOM_WIND BOM_PRES BOM_TNUM BOM_CI BOM_RMW BOM_R34_NE BOM_R34_SE BOM_R34_SW BOM_R34_NW BOM_R50_NE BOM_R50_SE BOM_R50_SW BOM_R50_NW BOM_R64_NE BOM_R64_SE BOM_R64_SW BOM_R64_NW BOM_ROCI BOM_POCI BOM_EYE BOM_POS_METHOD BOM_PRES_METHOD NADI_LAT NADI_LON NADI_CAT NADI_WIND NADI_PRES WELLINGTON_LAT WELLINGTON_LON WELLINGTON_WIND WELLINGTON_PRES DS824_LAT DS824_LON DS824_STAGE DS824_WIND DS824_PRES TD9636_LAT TD9636_LON TD9636_STAGE TD9636_WIND TD9636_PRES TD9635_LAT TD9635_LON TD9635_WIND TD9635_PRES TD9635_ROCI NEUMANN_LAT NEUMANN_LON NEUMANN_CLASS NEUMANN_WIND NEUMANN_PRES MLC_LAT MLC_LON MLC_CLASS MLC_WIND MLC_PRES USA_GUST BOM_GUST BOM_GUST_PER REUNION_GUST REUNION_GUST_PER USA_SEAHGT USA_SEARAD_NE USA_SEARAD_SE USA_SEARAD_SW USA_SEARAD_NW STORM_SPEED STORM_DIR
1969058S11164 1969 16 SP MM NOT_NAMED 1969-02-26 12:00:00 TS -10.8000 164.000 main 185 185 O________OO_O_ jtwc_sh SH261969 -10.8000 164.000 -1 -10.8000 164.000 TC 35 -10.8000 164.000 2 -10.8000 164.000 TC 25 16 125
1969058S11164 1969 16 SP MM NOT_NAMED 1969-02-26 15:00:00 TS -11.2492 164.661 main 265 265 P________PP_P_ SH261969 -11.2527 164.632 -1 -11.2527 164.632 TC 35 -11.2385 164.674 2 -11.2529 164.704 TC 25 16 124
1969058S11164 1969 16 SP MM NOT_NAMED 1969-02-26 18:00:00 TS -11.6953 165.340 main 342 298 O________OP_O_ jtwc_sh SH261969 -11.7000 165.300 -1 -11.7000 165.300 TC 35 -11.6810 165.359 2 -11.7000 165.400 TC 25 16 123
1969058S11164 1969 16 SP MM NOT_NAMED 1969-02-26 21:00:00 TS -12.1400 166.051 main 296 236 P________PP_P_ SH261969 -12.1424 166.028 -1 -12.1424 166.028 TC 35 -12.1331 166.065 2 -12.1422 166.085 TC 27 17 122
1969058S11164 1969 16 SP MM NOT_NAMED 1969-02-27 00:00:00 TS -12.6000 166.800 main 236 203 O________OO_O_ jtwc_sh SH261969 -12.6000 166.800 -1 -12.6000 166.800 TC 35 -12.6000 166.800 2 -12.6000 166.800 TC 30 18 123
1969058S11164 1969 16 SP MM NOT_NAMED 1969-02-27 03:00:00 TS -13.0958 167.585 main 209 203 P________PP_P_ SH261969 -13.0998 167.593 -1 -13.0998 167.593 TC 35 -13.0837 167.571 2 -13.0999 167.585 TC 32 18 123
1969058S11164 1969 16 SP MM NOT_NAMED 1969-02-27 06:00:00 TS -13.5930 168.393 main 210 209 O________OP_O_ jtwc_sh SH261969 -13.6000 168.400 -1 -13.6000 168.400 TC 35 -13.5720 168.370 2 -13.6000 168.400 TC 35 18 122
1969058S11164 1969 16 SP MM NOT_NAMED 1969-02-27 09:00:00 TS -14.0627 169.196 main 247 247 P________PP_P_ SH261969 -14.0647 169.200 -1 -14.0647 169.200 TC 35 -14.0493 169.184 2 -14.0722 169.200 TC 35 18 120
1969058S11164 1969 16 SP MM NOT_NAMED 1969-02-27 12:00:00 TS -14.5000 170.000 main 310 310 O________OO_O_ jtwc_sh SH261969 -14.5000 170.000 -1 -14.5000 170.000 TC 35 -14.5000 170.000 2 -14.5000 170.000 TC 35 18 118
1969058S11164 1969 16 SP MM NOT_NAMED 1969-02-27 15:00:00 TS -14.8988 170.820 main 357 357 P________PP_P_ SH261969 -14.9147 170.800 -1 -14.9147 170.800 TC 35 -14.9085 170.877 2 -14.8572 170.801 TC 37 18 116
1969058S11164 1969 16 SP MM NOT_NAMED 1969-02-27 18:00:00 TS -15.2722 171.636 main 421 421 O________OP_O_ jtwc_sh SH261969 -15.3000 171.600 -1 -15.3000 171.600 TC 35 -15.2887 171.742 2 -15.2000 171.600 TC 40 18 115
1969058S11164 1969 16 SP MM NOT_NAMED 1969-02-27 21:00:00 TS -15.6431 172.477 main 508 480 P________PP_P_ SH261969 -15.6577 172.453 -1 -15.6577 172.453 TC 35 -15.6494 172.536 2 -15.6078 172.467 TC 40 17 116
1969058S11164 1969 16 SP MM NOT_NAMED 1969-02-28 00:00:00 TS -16.0000 173.200 main 480 417 O________OO_O_ jtwc_sh SH261969 -16.0000 173.200 -1 -16.0000 173.200 TC 35 -16.0000 173.200 2 -16.0000 173.200 TC 40 14 121
1969058S11164 1969 16 SP MM NOT_NAMED 1969-02-28 03:00:00 TS -16.3396 173.700 main 417 369 P________PP_P_ SH261969 -16.3497 173.740 -1 -16.3497 173.740 TC 35 -16.3596 173.695 2 -16.2995 173.626 TC 42 11 130
1969058S11164 1969 16 SP MM NOT_NAMED 1969-02-28 06:00:00 TS -16.6783 174.038 main 369 327 O________OP_O_ jtwc_sh SH261969 -16.7000 174.100 -1 -16.7000 174.100 TC 35 -16.7131 174.054 2 -16.6000 173.900 TC 45 9 141
1969058S11164 1969 16 SP MM NOT_NAMED 1969-02-28 09:00:00 TS -17.0437 174.302 main 327 293 P________PP_P_ SH261969 -17.0573 174.338 -1 -17.0573 174.338 TC 35 -17.0602 174.310 2 -17.0000 174.222 TC 45 9 149
1969058S11164 1969 16 SP MM NOT_NAMED 1969-02-28 12:00:00 TS -17.4000 174.500 main 293 266 O________OO_O_ jtwc_sh SH261969 -17.4000 174.500 -1 -17.4000 174.500 TC 35 -17.4000 174.500 2 -17.4000 174.500 TC 45 8 149
1969058S11164 1969 16 SP MM NOT_NAMED 1969-02-28 15:00:00 TS -17.7099 174.728 main 266 243 P________PP_P_ SH261969 -17.7000 174.722 -1 -17.7000 174.722 TC 35 -17.7319 174.731 2 -17.7075 174.738 TC 47 7 148
1969058S11164 1969 16 SP MM NOT_NAMED 1969-02-28 18:00:00 TS -18.0143 174.900 main 243 232 O________OP_O_ jtwc_sh SH261969 -18.0000 174.900 -1 -18.0000 174.900 TC 35 -18.0571 174.900 2 -18.0000 174.900 TC 50 7 158
1969058S11164 1969 16 SP MM NOT_NAMED 1969-02-28 21:00:00 TS -18.3553 175.000 main 236 236 P________PP_P_ SH261969 -18.3500 175.002 -1 -18.3500 175.002 TC 35 -18.3788 174.993 2 -18.3425 175.002 TC 52 7 172
1969058S11164 1969 16 SP MM NOT_NAMED 1969-03-01 00:00:00 TS -18.7000 175.000 main 245 245 O________OO_O_ jtwc_sh SH261969 -18.7000 175.000 -1 -18.7000 175.000 TC 35 -18.7000 175.000 2 -18.7000 175.000 TC 55 7 189
1969058S11164 1969 16 SP MM NOT_NAMED 1969-03-01 03:00:00 TS -19.0186 174.890 main 267 267 P________PP_P_ SH261969 -19.0000 174.888 -1 -19.0000 174.888 TC 35 -19.0170 174.896 2 -19.0575 174.888 TC 57 7 204
1969058S11164 1969 16 SP MM NOT_NAMED 1969-03-01 06:00:00 TS -19.3338 174.703 main 300 300 O________OP_O_ jtwc_sh SH261969 -19.3000 174.700 -1 -19.3000 174.700 TC 35 -19.3353 174.711 2 -19.4000 174.700 TC 60 7 210
1969058S11164 1969 16 SP MM NOT_NAMED 1969-03-01 09:00:00 TS -19.6577 174.493 main 341 341 P________PP_P_ SH261969 -19.6350 174.493 -1 -19.6350 174.493 TC 35 -19.6609 174.496 2 -19.7000 174.493 TC 60 8 210
1969058S11164 1969 16 SP MM NOT_NAMED 1969-03-01 12:00:00 TS -20.0000 174.300 main 378 378 O________OO_O_ jtwc_sh SH261969 -20.0000 174.300 -1 -20.0000 174.300 TC 35 -20.0000 174.300 2 -20.0000 174.300 TC 60 8 203
1969058S11164 1969 16 SP MM NOT_NAMED 1969-03-01 15:00:00 TS -20.3789 174.173 main 413 413 P________PP_P_ SH261969 -20.4000 174.177 -1 -20.4000 174.177 TC 35 -20.3808 174.160 2 -20.3350 174.177 TC 60 8 194
1969058S11164 1969 16 SP MM NOT_NAMED 1969-03-01 18:00:00 TS -20.7681 174.088 main 451 451 O________OP_O_ jtwc_sh SH261969 -20.8000 174.100 -1 -20.8000 174.100 TC 35 -20.7723 174.053 2 -20.7000 174.100 TC 60 8 191
1969058S11164 1969 16 SP MM NOT_NAMED 1969-03-01 21:00:00 TS -21.1532 174.008 main 489 489 P________PP_P_ SH261969 -21.1725 174.013 -1 -21.1725 174.013 TC 35 -21.1527 173.994 2 -21.1150 174.013 TC 60 7 186
1969058S11164 1969 16 SP MM NOT_NAMED 1969-03-02 00:00:00 TS -21.5000 174.000 main 513 513 O________OO_O_ jtwc_sh SH261969 -21.5000 174.000 -1 -21.5000 174.000 TC 35 -21.5000 174.000 2 -21.5000 174.000 TC 60 6 170
1969058S11164 1969 16 SP MM NOT_NAMED 1969-03-02 03:00:00 TS -21.7732 174.123 main 532 525 P________PP_P_ SH261969 -21.7650 174.120 -1 -21.7650 174.120 TC 35 -21.7902 174.133 2 -21.7725 174.120 TC 60 6 151
1969058S11164 1969 16 SP MM NOT_NAMED 1969-03-02 06:00:00 TS -22.0113 174.305 main 537 537 O________OP_O_ jtwc_sh SH261969 -22.0000 174.300 -1 -22.0000 174.300 TC 35 -22.0453 174.321 2 -22.0000 174.300 TC 60 6 145
1969058S11164 1969 16 SP MM NOT_NAMED 1969-03-02 09:00:00 TS -22.2569 174.486 main 553 553 P________PP_P_ SH261969 -22.2500 174.480 -1 -22.2500 174.480 TC 35 -22.2776 174.499 2 -22.2500 174.487 TC 57 6 151
1969058S11164 1969 16 SP MM NOT_NAMED 1969-03-02 12:00:00 TS -22.5000 174.600 main 566 566 O________OO_O_ jtwc_sh SH261969 -22.5000 174.600 -1 -22.5000 174.600 TC 35 -22.5000 174.600 2 -22.5000 174.600 TC 55 5 169
1969058S11164 1969 16 SP MM NOT_NAMED 1969-03-02 15:00:00 TS -22.7499 174.591 main 586 586 P________PP_P_ SH261969 -22.7574 174.610 -1 -22.7574 174.610 TC 35 -22.7275 174.593 2 -22.7575 174.553 TC 55 5 194
1969058S11164 1969 16 SP MM NOT_NAMED 1969-03-02 18:00:00 TS -22.9872 174.474 main 620 620 O________OP_O_ jtwc_sh SH261969 -23.0000 174.500 -1 -23.0000 174.500 TC 35 -22.9490 174.494 2 -23.0000 174.400 TC 55 5 212
1969058S11164 1969 16 SP MM NOT_NAMED 1969-03-02 21:00:00 TS -23.1907 174.296 main 650 650 P________PP_P_ SH261969 -23.1998 174.317 -1 -23.1998 174.317 TC 35 -23.1710 174.299 2 -23.1923 174.252 TC 52 6 227
1969058S11164 1969 16 SP MM NOT_NAMED 1969-03-03 00:00:00 TS -23.4000 174.000 main 684 684 O________OO_O_ jtwc_sh SH261969 -23.4000 174.000 -1 -23.4000 174.000 TC 35 -23.4000 174.000 2 -23.4000 174.000 TC 50 8 235
1969058S11164 1969 16 SP MM NOT_NAMED 1969-03-03 03:00:00 TS -23.6716 173.561 main 693 648 P________PP_P_ SH261969 -23.6426 173.538 -1 -23.6426 173.538 TC 35 -23.7011 173.566 2 -23.7000 173.603 TC 47 10 238
1969058S11164 1969 16 SP MM NOT_NAMED 1969-03-03 06:00:00 TS -23.9499 173.035 main 638 600 O________OP_O_ jtwc_sh SH261969 -23.9000 173.000 -1 -23.9000 173.000 TC 35 -23.9995 173.041 2 -24.0000 173.100 TC 45 11 241
1969058S11164 1969 16 SP MM NOT_NAMED 1969-03-03 09:00:00 TS -24.2246 172.491 main 600 561 P________PP_P_ SH261969 -24.1951 172.470 -1 -24.1951 172.470 TC 35 -24.2480 172.494 2 -24.2603 172.528 TC 45 10 244
1969058S11164 1969 16 SP MM NOT_NAMED 1969-03-03 12:00:00 TS -24.4000 172.000 main 561 533 O________OO_O_ jtwc_sh SH261969 -24.4000 172.000 -1 -24.4000 172.000 TC 35 -24.4000 172.000 2 -24.4000 172.000 TC 45 8 259
1969058S11164 1969 16 SP MM NOT_NAMED 1969-03-03 15:00:00 TS -24.3788 171.654 main 533 501 P________PP_P_ SH261969 -24.4098 171.662 -1 -24.4098 171.662 TC 35 -24.3511 171.638 2 -24.3447 171.655 TC 42 6 285
1969058S11164 1969 16 SP MM NOT_NAMED 1969-03-03 18:00:00 TS -24.2535 171.386 main 501 464 O________OP_O_ jtwc_sh SH261969 -24.3000 171.400 -1 -24.3000 171.400 TC 35 -24.2142 171.342 2 -24.2000 171.400 TC 40 6 301
1969058S11164 1969 16 SP MM NOT_NAMED 1969-03-03 21:00:00 TS -24.0875 171.121 main 464 441 P________PP_P_ SH261969 -24.1125 171.127 -1 -24.1125 171.127 TC 35 -24.0702 171.101 2 -24.0550 171.127 TC 40 5 300
1969058S11164 1969 16 SP MM NOT_NAMED 1969-03-04 00:00:00 TS -24.0000 170.900 main 441 428 O________OO_O_ jtwc_sh SH261969 -24.0000 170.900 -1 -24.0000 170.900 TC 35 -24.0000 170.900 2 -24.0000 170.900 TC 40 4 260
1969058S11164 1969 16 SP MM NOT_NAMED 1969-03-04 03:00:00 TS -24.1468 170.737 main 428 428 P________PP_P_ SH261969 -24.1474 170.735 -1 -24.1474 170.735 TC 35 -24.1376 170.743 2 -24.1549 170.735 TC 37 5 215
1969058S11164 1969 16 SP MM NOT_NAMED 1969-03-04 06:00:00 TS -24.3886 170.604 main 435 433 O________OP_O_ jtwc_sh SH261969 -24.4000 170.600 -1 -24.4000 170.600 TC 35 -24.3542 170.616 2 -24.4000 170.600 TC 35 5 208
1969058S11164 1969 16 SP MM NOT_NAMED 1969-03-04 09:00:00 TS -24.6096 170.474 main 439 437 P________PP_P_ SH261969 -24.6149 170.472 -1 -24.6149 170.472 TC 35 -24.5938 170.480 2 -24.6149 170.472 TC 32 5 214
1969058S11164 1969 16 SP MM NOT_NAMED 1969-03-04 12:00:00 TS -24.8000 170.300 main 437 429 O________OO_O_ jtwc_sh SH261969 -24.8000 170.300 -1 -24.8000 170.300 TC 35 -24.8000 170.300 2 -24.8000 170.300 TC 30 5 231
1969058S11164 1969 16 SP MM NOT_NAMED 1969-03-04 15:00:00 TS -24.9299 170.034 main 421 406 P________PP_P_ SH261969 -24.9300 170.030 -1 -24.9300 170.030 TC 35 -24.9295 170.047 2 -24.9300 170.030 TC 27 6 250
1969058S11164 1969 16 SP MM NOT_NAMED 1969-03-04 18:00:00 TS -24.9978 169.708 main 406 386 O________OP_O_ jtwc_sh SH261969 -25.0000 169.700 -1 -25.0000 169.700 TC 35 -24.9912 169.732 2 -25.0000 169.700 TC 25 6 262
1969058S11164 1969 16 SP MM NOT_NAMED 1969-03-04 21:00:00 TS -25.0132 169.358 main 386 360 P________PP_P_ SH261969 -25.0151 169.352 -1 -25.0151 169.352 TC 35 -25.0073 169.376 2 -25.0151 169.352 TC 22 6 270
1969058S11164 1969 16 SP MM NOT_NAMED 1969-03-05 00:00:00 TS -25.0000 169.000 main 360 O________OO_O_ jtwc_sh SH261969 -25.0000 169.000 -1 -25.0000 169.000 TC 35 -25.0000 169.000 2 -25.0000 169.000 TC 20 7 272

Digital Typhoon Data and Search

About IBTrACS Database

This database is a web-friendly format of International Best Track Archive for Climate Stewardship (IBTrACS), a global best track data archive curated by NOAA dating back to 1842.

Updated: 2021-11-26